sensor_id;sensor_type;location;lat;lon;timestamp;temperature;humidity
1091;DHT22;534;48.704;9.122;2023-02-04T04:02:54;7.90;90.40
1091;DHT22;534;48.704;9.122;2023-02-04T04:05:21;7.90;90.50
1091;DHT22;534;48.704;9.122;2023-02-04T04:07:48;8.00;90.20
1091;DHT22;534;48.704;9.122;2023-02-04T04:10:15;8.00;90.10
1091;DHT22;534;48.704;9.122;2023-02-04T04:12:42;8.00;89.70
1091;DHT22;534;48.704;9.122;2023-02-04T04:15:09;8.00;89.90
1091;DHT22;534;48.704;9.122;2023-02-04T04:17:35;8.00;89.70
1091;DHT22;534;48.704;9.122;2023-02-04T04:20:04;8.00;90.10
1091;DHT22;534;48.704;9.122;2023-02-04T04:22:31;8.10;89.80
1091;DHT22;534;48.704;9.122;2023-02-04T04:24:58;8.20;89.50
1091;DHT22;534;48.704;9.122;2023-02-04T04:27:24;8.20;89.20
1091;DHT22;534;48.704;9.122;2023-02-04T04:29:51;8.30;89.20
1091;DHT22;534;48.704;9.122;2023-02-04T04:32:18;8.40;88.90
1091;DHT22;534;48.704;9.122;2023-02-04T04:34:44;8.50;88.50
1091;DHT22;534;48.704;9.122;2023-02-04T04:37:12;8.50;88.40
1091;DHT22;534;48.704;9.122;2023-02-04T04:39:39;8.50;88.10
1091;DHT22;534;48.704;9.122;2023-02-04T04:42:06;8.60;87.80
1091;DHT22;534;48.704;9.122;2023-02-04T04:44:32;8.50;87.80
1091;DHT22;534;48.704;9.122;2023-02-04T04:46:59;8.50;88.10
1091;DHT22;534;48.704;9.122;2023-02-04T04:49:26;8.50;88.00
1091;DHT22;534;48.704;9.122;2023-02-04T04:51:52;8.40;88.20
1091;DHT22;534;48.704;9.122;2023-02-04T04:54:20;8.40;88.30
1091;DHT22;534;48.704;9.122;2023-02-04T04:56:47;8.30;88.20
1091;DHT22;534;48.704;9.122;2023-02-04T04:59:13;8.20;88.40
1091;DHT22;534;48.704;9.122;2023-02-04T05:01:40;8.20;88.60
1091;DHT22;534;48.704;9.122;2023-02-04T05:04:07;8.20;88.40
1091;DHT22;534;48.704;9.122;2023-02-04T05:06:34;8.20;89.00
1091;DHT22;534;48.704;9.122;2023-02-04T05:09:00;8.10;88.90
1091;DHT22;534;48.704;9.122;2023-02-04T05:11:28;8.10;88.60
1091;DHT22;534;48.704;9.122;2023-02-04T05:13:55;8.20;88.50
1091;DHT22;534;48.704;9.122;2023-02-04T05:16:22;8.30;88.50
1091;DHT22;534;48.704;9.122;2023-02-04T05:18:48;8.30;88.50
1091;DHT22;534;48.704;9.122;2023-02-04T05:21:15;8.40;88.40
1091;DHT22;534;48.704;9.122;2023-02-04T05:23:42;8.50;88.10
1091;DHT22;534;48.704;9.122;2023-02-04T05:26:08;8.60;87.50
1091;DHT22;534;48.704;9.122;2023-02-04T05:28:36;8.50;87.20
1091;DHT22;534;48.704;9.122;2023-02-04T05:31:03;8.60;87.10
1091;DHT22;534;48.704;9.122;2023-02-04T05:33:29;8.70;86.50
1091;DHT22;534;48.704;9.122;2023-02-04T05:35:56;8.70;86.30
1091;DHT22;534;48.704;9.122;2023-02-04T05:38:23;8.70;86.30
1091;DHT22;534;48.704;9.122;2023-02-04T05:40:49;8.70;86.30
1091;DHT22;534;48.704;9.122;2023-02-04T05:43:16;8.80;86.20
1091;DHT22;534;48.704;9.122;2023-02-04T05:45:44;8.80;85.80
1091;DHT22;534;48.704;9.122;2023-02-04T05:48:11;8.70;86.10
1091;DHT22;534;48.704;9.122;2023-02-04T05:50:37;8.80;85.90
1091;DHT22;534;48.704;9.122;2023-02-04T05:53:04;8.80;85.70
1091;DHT22;534;48.704;9.122;2023-02-04T05:55:31;8.70;85.40
1091;DHT22;534;48.704;9.122;2023-02-04T05:57:57;8.70;85.40
1091;DHT22;534;48.704;9.122;2023-02-04T06:00:24;8.70;85.40
1091;DHT22;534;48.704;9.122;2023-02-04T06:02:52;8.70;85.40
1091;DHT22;534;48.704;9.122;2023-02-04T06:05:18;8.70;85.40
1091;DHT22;534;48.704;9.122;2023-02-04T06:07:47;8.70;85.40
1091;DHT22;534;48.704;9.122;2023-02-04T06:10:14;8.60;85.80
1091;DHT22;534;48.704;9.122;2023-02-04T06:12:41;8.50;85.60
1091;DHT22;534;48.704;9.122;2023-02-04T06:15:08;8.30;85.70
1091;DHT22;534;48.704;9.122;2023-02-04T06:17:36;8.30;86.40
1091;DHT22;534;48.704;9.122;2023-02-04T06:20:05;8.30;86.50
1091;DHT22;534;48.704;9.122;2023-02-04T06:22:32;8.30;86.80
1091;DHT22;534;48.704;9.122;2023-02-04T06:24:59;8.30;86.70
1091;DHT22;534;48.704;9.122;2023-02-04T06:27:25;8.30;86.40
1091;DHT22;534;48.704;9.122;2023-02-04T06:29:52;8.30;86.80
1091;DHT22;534;48.704;9.122;2023-02-04T06:32:20;8.30;86.60
1091;DHT22;534;48.704;9.122;2023-02-04T06:34:47;8.30;86.30
1091;DHT22;534;48.704;9.122;2023-02-04T06:37:15;8.20;85.70
1091;DHT22;534;48.704;9.122;2023-02-04T06:39:42;8.20;85.80
1091;DHT22;534;48.704;9.122;2023-02-04T06:42:09;8.20;86.40
1091;DHT22;534;48.704;9.122;2023-02-04T06:44:35;8.20;86.20
1091;DHT22;534;48.704;9.122;2023-02-04T06:47:02;8.20;86.00
1091;DHT22;534;48.704;9.122;2023-02-04T06:49:29;8.30;85.90
1091;DHT22;534;48.704;9.122;2023-02-04T06:51:55;8.30;85.60
1091;DHT22;534;48.704;9.122;2023-02-04T06:54:23;8.30;85.60
1091;DHT22;534;48.704;9.122;2023-02-04T06:56:50;8.30;85.50
1091;DHT22;534;48.704;9.122;2023-02-04T06:59:16;8.20;85.60
1091;DHT22;534;48.704;9.122;2023-02-04T07:01:43;8.20;85.80
1091;DHT22;534;48.704;9.122;2023-02-04T07:04:10;8.30;85.60
1091;DHT22;534;48.704;9.122;2023-02-04T07:06:36;8.30;85.20
1091;DHT22;534;48.704;9.122;2023-02-04T07:09:03;8.30;85.50
1091;DHT22;534;48.704;9.122;2023-02-04T07:11:32;8.30;85.10
1091;DHT22;534;48.704;9.122;2023-02-04T07:13:59;8.20;85.10
1091;DHT22;534;48.704;9.122;2023-02-04T07:16:25;8.20;85.50
1091;DHT22;534;48.704;9.122;2023-02-04T07:18:52;8.30;85.20
1091;DHT22;534;48.704;9.122;2023-02-04T07:21:18;8.30;85.50
1091;DHT22;534;48.704;9.122;2023-02-04T07:23:45;8.40;85.30
1091;DHT22;534;48.704;9.122;2023-02-04T07:26:12;8.40;85.20
1091;DHT22;534;48.704;9.122;2023-02-04T07:28:40;8.40;85.50
1091;DHT22;534;48.704;9.122;2023-02-04T07:31:07;8.40;85.70
1091;DHT22;534;48.704;9.122;2023-02-04T07:33:34;8.50;85.30
1091;DHT22;534;48.704;9.122;2023-02-04T07:36:01;8.50;85.10
1091;DHT22;534;48.704;9.122;2023-02-04T07:38:28;8.50;84.90
1091;DHT22;534;48.704;9.122;2023-02-04T07:40:55;8.50;84.60
1091;DHT22;534;48.704;9.122;2023-02-04T07:43:21;8.60;84.40
1091;DHT22;534;48.704;9.122;2023-02-04T07:45:49;8.60;84.20
1091;DHT22;534;48.704;9.122;2023-02-04T07:48:16;8.50;84.40
1091;DHT22;534;48.704;9.122;2023-02-04T07:50:43;8.40;84.80
1091;DHT22;534;48.704;9.122;2023-02-04T07:53:09;8.40;84.80
1091;DHT22;534;48.704;9.122;2023-02-04T07:55:36;8.50;84.80
1091;DHT22;534;48.704;9.122;2023-02-04T07:58:03;8.50;84.60
1091;DHT22;534;48.704;9.122;2023-02-04T08:00:30;8.40;84.80
1091;DHT22;534;48.704;9.122;2023-02-04T08:02:58;8.50;84.50
1091;DHT22;534;48.704;9.122;2023-02-04T08:05:24;8.50;84.40
1091;DHT22;534;48.704;9.122;2023-02-04T08:07:51;8.40;84.40
1091;DHT22;534;48.704;9.122;2023-02-04T08:10:18;8.40;83.90
1091;DHT22;534;48.704;9.122;2023-02-04T08:12:46;8.40;84.10
1091;DHT22;534;48.704;9.122;2023-02-04T08:15:13;8.50;84.20
1091;DHT22;534;48.704;9.122;2023-02-04T08:17:40;8.60;83.80
1091;DHT22;534;48.704;9.122;2023-02-04T08:20:09;8.60;83.70
1091;DHT22;534;48.704;9.122;2023-02-04T08:22:36;8.70;83.60
1091;DHT22;534;48.704;9.122;2023-02-04T08:25:03;8.70;83.70
1091;DHT22;534;48.704;9.122;2023-02-04T08:27:30;8.80;83.70
1091;DHT22;534;48.704;9.122;2023-02-04T08:29:57;8.60;83.90
1091;DHT22;534;48.704;9.122;2023-02-04T08:32:23;8.70;83.90
1091;DHT22;534;48.704;9.122;2023-02-04T08:34:51;8.80;83.60
1091;DHT22;534;48.704;9.122;2023-02-04T08:37:19;8.90;83.10
1091;DHT22;534;48.704;9.122;2023-02-04T08:39:46;8.80;83.30
1091;DHT22;534;48.704;9.122;2023-02-04T08:42:13;8.80;83.50
1091;DHT22;534;48.704;9.122;2023-02-04T08:44:40;8.80;83.40
1091;DHT22;534;48.704;9.122;2023-02-04T08:47:07;8.90;83.10
1091;DHT22;534;48.704;9.122;2023-02-04T08:49:35;8.90;82.70
1091;DHT22;534;48.704;9.122;2023-02-04T08:52:02;8.90;82.50
1091;DHT22;534;48.704;9.122;2023-02-04T08:54:32;9.10;83.00
1091;DHT22;534;48.704;9.122;2023-02-04T08:56:59;9.20;82.70
1091;DHT22;534;48.704;9.122;2023-02-04T08:59:26;9.30;82.60
1091;DHT22;534;48.704;9.122;2023-02-04T09:01:53;9.50;81.30
1091;DHT22;534;48.704;9.122;2023-02-04T09:04:20;9.60;81.00
1091;DHT22;534;48.704;9.122;2023-02-04T09:06:47;9.90;80.50
1091;DHT22;534;48.704;9.122;2023-02-04T09:09:14;10.20;78.80
1091;DHT22;534;48.704;9.122;2023-02-04T09:11:43;10.30;79.70
1091;DHT22;534;48.704;9.122;2023-02-04T09:14:09;10.40;78.50
1091;DHT22;534;48.704;9.122;2023-02-04T09:16:36;10.60;76.80
1091;DHT22;534;48.704;9.122;2023-02-04T09:19:03;10.60;76.10
1091;DHT22;534;48.704;9.122;2023-02-04T09:21:31;10.60;75.60
1091;DHT22;534;48.704;9.122;2023-02-04T09:23:57;10.40;75.50
1091;DHT22;534;48.704;9.122;2023-02-04T09:26:24;10.40;76.20
1091;DHT22;534;48.704;9.122;2023-02-04T09:28:52;10.50;75.40
1091;DHT22;534;48.704;9.122;2023-02-04T09:31:19;10.40;74.30
1091;DHT22;534;48.704;9.122;2023-02-04T09:33:45;10.60;74.50
1091;DHT22;534;48.704;9.122;2023-02-04T09:36:12;10.50;73.60
1091;DHT22;534;48.704;9.122;2023-02-04T09:38:39;10.40;73.70
1091;DHT22;534;48.704;9.122;2023-02-04T09:41:07;10.40;75.40
1091;DHT22;534;48.704;9.122;2023-02-04T09:43:39;10.20;77.00
1091;DHT22;534;48.704;9.122;2023-02-04T09:46:15;10.30;75.40
1091;DHT22;534;48.704;9.122;2023-02-04T09:48:44;10.60;74.40
1091;DHT22;534;48.704;9.122;2023-02-04T09:51:18;10.90;76.00
1091;DHT22;534;48.704;9.122;2023-02-04T09:53:46;11.00;76.60
1091;DHT22;534;48.704;9.122;2023-02-04T09:56:13;10.80;72.70
1091;DHT22;534;48.704;9.122;2023-02-04T09:58:41;10.50;71.90
1091;DHT22;534;48.704;9.122;2023-02-04T10:01:12;10.20;72.20
1091;DHT22;534;48.704;9.122;2023-02-04T10:03:40;10.00;72.60
1091;DHT22;534;48.704;9.122;2023-02-04T10:06:11;10.00;73.80
1091;DHT22;534;48.704;9.122;2023-02-04T10:08:39;10.00;73.70
1091;DHT22;534;48.704;9.122;2023-02-04T10:11:05;9.90;73.10
1091;DHT22;534;48.704;9.122;2023-02-04T10:13:36;9.60;72.70
1091;DHT22;534;48.704;9.122;2023-02-04T10:16:07;9.40;73.50
1091;DHT22;534;48.704;9.122;2023-02-04T10:18:37;9.60;74.20
1091;DHT22;534;48.704;9.122;2023-02-04T10:21:12;9.60;74.70
1091;DHT22;534;48.704;9.122;2023-02-04T10:23:40;9.70;74.80
1091;DHT22;534;48.704;9.122;2023-02-04T10:26:09;9.60;73.10
1091;DHT22;534;48.704;9.122;2023-02-04T10:28:36;9.60;73.10
1091;DHT22;534;48.704;9.122;2023-02-04T10:31:04;9.60;73.60
1091;DHT22;534;48.704;9.122;2023-02-04T10:33:33;9.70;73.50
1091;DHT22;534;48.704;9.122;2023-02-04T10:36:04;9.90;72.70
1091;DHT22;534;48.704;9.122;2023-02-04T10:38:31;10.00;71.90
1091;DHT22;534;48.704;9.122;2023-02-04T10:41:01;10.20;72.40
1091;DHT22;534;48.704;9.122;2023-02-04T10:43:28;10.30;73.50
1091;DHT22;534;48.704;9.122;2023-02-04T10:45:56;10.10;71.40
1091;DHT22;534;48.704;9.122;2023-02-04T10:48:24;10.30;71.60
1091;DHT22;534;48.704;9.122;2023-02-04T10:50:51;10.40;72.30
1091;DHT22;534;48.704;9.122;2023-02-04T10:53:21;10.10;72.20
1091;DHT22;534;48.704;9.122;2023-02-04T10:56:11;9.90;72.00
1091;DHT22;534;48.704;9.122;2023-02-04T10:58:40;9.70;72.70
1091;DHT22;534;48.704;9.122;2023-02-04T11:01:08;9.50;72.40
1091;DHT22;534;48.704;9.122;2023-02-04T11:03:37;9.50;72.10
1091;DHT22;534;48.704;9.122;2023-02-04T11:06:09;9.40;71.50
1091;DHT22;534;48.704;9.122;2023-02-04T11:08:38;9.30;72.40
1091;DHT22;534;48.704;9.122;2023-02-04T11:11:07;9.30;72.90
1091;DHT22;534;48.704;9.122;2023-02-04T11:13:40;9.20;72.70
1091;DHT22;534;48.704;9.122;2023-02-04T11:16:11;9.30;72.90
1091;DHT22;534;48.704;9.122;2023-02-04T11:18:46;9.40;73.40
1091;DHT22;534;48.704;9.122;2023-02-04T11:21:21;9.50;73.40
1091;DHT22;534;48.704;9.122;2023-02-04T11:23:50;9.70;73.10
1091;DHT22;534;48.704;9.122;2023-02-04T11:26:19;9.70;72.40
1091;DHT22;534;48.704;9.122;2023-02-04T11:29:09;9.60;72.70
1091;DHT22;534;48.704;9.122;2023-02-04T11:32:01;9.30;72.70
1091;DHT22;534;48.704;9.122;2023-02-04T11:34:31;9.50;72.60
1091;DHT22;534;48.704;9.122;2023-02-04T11:37:33;9.80;72.20
1091;DHT22;534;48.704;9.122;2023-02-04T11:40:13;10.00;71.30
1091;DHT22;534;48.704;9.122;2023-02-04T11:42:45;10.00;72.10
1091;DHT22;534;48.704;9.122;2023-02-04T11:45:15;10.10;72.10
1091;DHT22;534;48.704;9.122;2023-02-04T11:47:43;10.00;71.40
1091;DHT22;534;48.704;9.122;2023-02-04T11:50:14;10.00;72.00
1091;DHT22;534;48.704;9.122;2023-02-04T11:52:41;9.80;71.70
1091;DHT22;534;48.704;9.122;2023-02-04T11:55:11;9.80;71.80
1091;DHT22;534;48.704;9.122;2023-02-04T11:57:38;9.70;71.90
1091;DHT22;534;48.704;9.122;2023-02-04T12:00:12;9.70;71.50
1091;DHT22;534;48.704;9.122;2023-02-04T12:02:44;9.50;72.10
1091;DHT22;534;48.704;9.122;2023-02-04T12:05:14;9.40;72.30
1091;DHT22;534;48.704;9.122;2023-02-04T12:07:41;9.30;72.50
1091;DHT22;534;48.704;9.122;2023-02-04T12:10:18;9.50;72.50
1091;DHT22;534;48.704;9.122;2023-02-04T12:12:48;9.60;72.20
1091;DHT22;534;48.704;9.122;2023-02-04T12:15:20;9.70;72.50
1091;DHT22;534;48.704;9.122;2023-02-04T12:18:00;9.80;71.80
1091;DHT22;534;48.704;9.122;2023-02-04T12:20:27;10.00;71.30
1091;DHT22;534;48.704;9.122;2023-02-04T12:22:53;10.10;71.70
1091;DHT22;534;48.704;9.122;2023-02-04T12:25:21;10.20;71.30
1091;DHT22;534;48.704;9.122;2023-02-04T12:27:48;10.30;70.80
1091;DHT22;534;48.704;9.122;2023-02-04T12:30:15;10.60;69.60
1091;DHT22;534;48.704;9.122;2023-02-04T12:32:43;10.50;70.10
1091;DHT22;534;48.704;9.122;2023-02-04T12:35:09;10.40;69.60
1091;DHT22;534;48.704;9.122;2023-02-04T12:37:36;10.70;69.90
1091;DHT22;534;48.704;9.122;2023-02-04T12:40:03;11.30;68.20
1091;DHT22;534;48.704;9.122;2023-02-04T12:42:31;11.50;67.70
1091;DHT22;534;48.704;9.122;2023-02-04T12:44:58;11.60;66.50
1091;DHT22;534;48.704;9.122;2023-02-04T12:47:25;11.60;65.20
1091;DHT22;534;48.704;9.122;2023-02-04T12:49:51;11.50;66.50
1091;DHT22;534;48.704;9.122;2023-02-04T12:52:18;11.00;65.50
1091;DHT22;534;48.704;9.122;2023-02-04T12:54:45;10.60;65.70
1091;DHT22;534;48.704;9.122;2023-02-04T12:57:11;10.00;68.00
1091;DHT22;534;48.704;9.122;2023-02-04T12:59:45;10.10;68.70
1091;DHT22;534;48.704;9.122;2023-02-04T13:02:13;10.10;68.60
1091;DHT22;534;48.704;9.122;2023-02-04T13:04:40;10.00;68.40
1091;DHT22;534;48.704;9.122;2023-02-04T13:07:07;10.30;68.30
1091;DHT22;534;48.704;9.122;2023-02-04T13:09:34;10.70;68.00
1091;DHT22;534;48.704;9.122;2023-02-04T13:12:01;11.30;66.20
1091;DHT22;534;48.704;9.122;2023-02-04T13:14:54;11.80;63.80
1091;DHT22;534;48.704;9.122;2023-02-04T13:17:30;12.30;62.10
1091;DHT22;534;48.704;9.122;2023-02-04T13:19:56;12.30;61.70
1091;DHT22;534;48.704;9.122;2023-02-04T13:22:23;12.20;61.10
1091;DHT22;534;48.704;9.122;2023-02-04T13:24:49;12.00;60.70
1091;DHT22;534;48.704;9.122;2023-02-04T13:27:16;12.00;60.80
1091;DHT22;534;48.704;9.122;2023-02-04T13:29:43;12.40;61.20
1091;DHT22;534;48.704;9.122;2023-02-04T13:32:11;13.50;58.70
1091;DHT22;534;48.704;9.122;2023-02-04T13:34:38;14.30;56.50
1091;DHT22;534;48.704;9.122;2023-02-04T13:37:04;14.60;55.00
1091;DHT22;534;48.704;9.122;2023-02-04T13:39:31;14.60;54.70
1091;DHT22;534;48.704;9.122;2023-02-04T13:41:58;14.50;54.60
1091;DHT22;534;48.704;9.122;2023-02-04T13:44:24;14.20;54.00
1091;DHT22;534;48.704;9.122;2023-02-04T13:46:51;13.60;55.80
1091;DHT22;534;48.704;9.122;2023-02-04T13:49:19;13.10;56.50
1091;DHT22;534;48.704;9.122;2023-02-04T13:51:46;12.60;58.30
1091;DHT22;534;48.704;9.122;2023-02-04T13:54:13;12.10;59.00
1091;DHT22;534;48.704;9.122;2023-02-04T13:56:40;11.70;59.70
1091;DHT22;534;48.704;9.122;2023-02-04T13:59:06;11.50;60.00
1091;DHT22;534;48.704;9.122;2023-02-04T14:01:33;11.10;61.60
1091;DHT22;534;48.704;9.122;2023-02-04T14:04:00;11.10;63.00
1091;DHT22;534;48.704;9.122;2023-02-04T14:06:28;11.10;62.50
1091;DHT22;534;48.704;9.122;2023-02-04T14:08:58;11.20;62.50
1091;DHT22;534;48.704;9.122;2023-02-04T14:11:25;11.90;62.90
1091;DHT22;534;48.704;9.122;2023-02-04T14:13:52;13.90;59.40
1091;DHT22;534;48.704;9.122;2023-02-04T14:16:18;15.40;56.10
1091;DHT22;534;48.704;9.122;2023-02-04T14:18:45;17.20;51.80
1091;DHT22;534;48.704;9.122;2023-02-04T14:21:12;18.20;50.10
1091;DHT22;534;48.704;9.122;2023-02-04T14:23:40;19.30;47.80
1091;DHT22;534;48.704;9.122;2023-02-04T14:26:07;20.40;45.50
1091;DHT22;534;48.704;9.122;2023-02-04T14:28:33;21.10;44.20
1091;DHT22;534;48.704;9.122;2023-02-04T14:31:00;21.80;42.50
1091;DHT22;534;48.704;9.122;2023-02-04T14:33:27;21.60;41.60
1091;DHT22;534;48.704;9.122;2023-02-04T14:35:53;20.70;41.20
1091;DHT22;534;48.704;9.122;2023-02-04T14:38:20;20.50;42.70
1091;DHT22;534;48.704;9.122;2023-02-04T14:40:48;21.00;42.10
1091;DHT22;534;48.704;9.122;2023-02-04T14:43:15;22.10;40.80
1091;DHT22;534;48.704;9.122;2023-02-04T14:45:41;23.20;38.90
1091;DHT22;534;48.704;9.122;2023-02-04T14:48:08;23.70;38.20
1091;DHT22;534;48.704;9.122;2023-02-04T14:50:34;24.40;37.40
1091;DHT22;534;48.704;9.122;2023-02-04T14:53:01;24.00;37.50
1091;DHT22;534;48.704;9.122;2023-02-04T14:55:28;22.70;39.30
1091;DHT22;534;48.704;9.122;2023-02-04T14:57:56;21.30;41.10
1091;DHT22;534;48.704;9.122;2023-02-04T15:00:23;19.90;42.90
1091;DHT22;534;48.704;9.122;2023-02-04T15:02:50;19.10;44.60
1091;DHT22;534;48.704;9.122;2023-02-04T15:05:17;18.20;46.00
1091;DHT22;534;48.704;9.122;2023-02-04T15:07:43;17.60;47.30
1091;DHT22;534;48.704;9.122;2023-02-04T15:10:11;17.00;48.50
1091;DHT22;534;48.704;9.122;2023-02-04T15:12:38;16.60;49.30
1091;DHT22;534;48.704;9.122;2023-02-04T15:15:06;15.80;50.50
1091;DHT22;534;48.704;9.122;2023-02-04T15:17:33;15.00;52.30
1091;DHT22;534;48.704;9.122;2023-02-04T15:20:00;14.20;54.00
1091;DHT22;534;48.704;9.122;2023-02-04T15:22:28;13.70;55.30
1091;DHT22;534;48.704;9.122;2023-02-04T15:24:55;13.20;56.50
1091;DHT22;534;48.704;9.122;2023-02-04T15:27:21;12.80;57.60
1091;DHT22;534;48.704;9.122;2023-02-04T15:29:48;12.60;58.90
1091;DHT22;534;48.704;9.122;2023-02-04T15:32:16;12.20;59.30
1091;DHT22;534;48.704;9.122;2023-02-04T15:34:43;12.00;59.90
1091;DHT22;534;48.704;9.122;2023-02-04T15:37:10;11.80;60.50
1091;DHT22;534;48.704;9.122;2023-02-04T15:39:36;11.60;61.20
1091;DHT22;534;48.704;9.122;2023-02-04T15:42:04;11.40;61.70
1091;DHT22;534;48.704;9.122;2023-02-04T15:44:31;11.30;62.10
1091;DHT22;534;48.704;9.122;2023-02-04T15:46:58;11.30;62.70
1091;DHT22;534;48.704;9.122;2023-02-04T15:49:26;11.20;62.90
1091;DHT22;534;48.704;9.122;2023-02-04T15:51:52;11.10;63.10
1091;DHT22;534;48.704;9.122;2023-02-04T15:54:19;11.00;63.30
1091;DHT22;534;48.704;9.122;2023-02-04T15:56:46;10.90;63.90
1091;DHT22;534;48.704;9.122;2023-02-04T15:59:12;10.80;64.10
1091;DHT22;534;48.704;9.122;2023-02-04T16:01:40;10.70;64.20
1091;DHT22;534;48.704;9.122;2023-02-04T16:04:07;10.70;64.70
1091;DHT22;534;48.704;9.122;2023-02-04T16:06:35;10.60;65.00
1091;DHT22;534;48.704;9.122;2023-02-04T16:09:02;10.50;65.20
1091;DHT22;534;48.704;9.122;2023-02-04T16:11:29;10.40;65.30
1091;DHT22;534;48.704;9.122;2023-02-04T16:13:57;10.30;65.70
1091;DHT22;534;48.704;9.122;2023-02-04T16:16:24;10.10;65.90
1091;DHT22;534;48.704;9.122;2023-02-04T16:18:50;10.10;65.80
1091;DHT22;534;48.704;9.122;2023-02-04T16:21:17;10.10;65.90
1091;DHT22;534;48.704;9.122;2023-02-04T16:23:45;10.00;66.20
1091;DHT22;534;48.704;9.122;2023-02-04T16:26:12;10.00;66.40
1091;DHT22;534;48.704;9.122;2023-02-04T16:28:39;10.00;66.40
1091;DHT22;534;48.704;9.122;2023-02-04T16:31:06;10.00;66.70
1091;DHT22;534;48.704;9.122;2023-02-04T16:33:34;9.90;66.80
1091;DHT22;534;48.704;9.122;2023-02-04T16:36:02;9.90;66.70
1091;DHT22;534;48.704;9.122;2023-02-04T16:38:30;9.80;66.90
1091;DHT22;534;48.704;9.122;2023-02-04T16:40:58;9.80;66.60
1091;DHT22;534;48.704;9.122;2023-02-04T16:43:25;9.80;66.80
1091;DHT22;534;48.704;9.122;2023-02-04T16:45:52;9.70;66.80
1091;DHT22;534;48.704;9.122;2023-02-04T16:48:18;9.70;66.90
1091;DHT22;534;48.704;9.122;2023-02-04T16:50:45;9.60;66.80
1091;DHT22;534;48.704;9.122;2023-02-04T16:53:12;9.60;66.50
1091;DHT22;534;48.704;9.122;2023-02-04T16:55:40;9.50;66.60
1091;DHT22;534;48.704;9.122;2023-02-04T16:58:09;9.50;66.70
1091;DHT22;534;48.704;9.122;2023-02-04T17:00:36;9.40;67.30
1091;DHT22;534;48.704;9.122;2023-02-04T17:03:06;9.40;67.40
1091;DHT22;534;48.704;9.122;2023-02-04T17:05:33;9.30;67.30
1091;DHT22;534;48.704;9.122;2023-02-04T17:07:59;9.30;67.10
1091;DHT22;534;48.704;9.122;2023-02-04T17:10:26;9.20;67.00
1091;DHT22;534;48.704;9.122;2023-02-04T17:13:11;9.20;66.80
1091;DHT22;534;48.704;9.122;2023-02-04T17:15:37;9.20;66.80
1091;DHT22;534;48.704;9.122;2023-02-04T17:18:04;9.20;66.90
1091;DHT22;534;48.704;9.122;2023-02-04T17:20:31;9.20;67.00
1091;DHT22;534;48.704;9.122;2023-02-04T17:22:57;9.10;67.20
1091;DHT22;534;48.704;9.122;2023-02-04T17:25:24;9.10;67.40
1091;DHT22;534;48.704;9.122;2023-02-04T17:27:51;9.00;67.50
1091;DHT22;534;48.704;9.122;2023-02-04T17:30:19;8.90;68.10
1091;DHT22;534;48.704;9.122;2023-02-04T17:32:46;8.70;69.00
1091;DHT22;534;48.704;9.122;2023-02-04T17:35:13;8.70;69.50
1091;DHT22;534;48.704;9.122;2023-02-04T17:37:41;8.70;69.60
1091;DHT22;534;48.704;9.122;2023-02-04T17:40:10;8.70;69.80
1091;DHT22;534;48.704;9.122;2023-02-04T17:42:37;8.70;70.00
1091;DHT22;534;48.704;9.122;2023-02-04T17:45:05;8.70;70.10
1091;DHT22;534;48.704;9.122;2023-02-04T17:47:36;8.70;70.60
1091;DHT22;534;48.704;9.122;2023-02-04T17:50:04;8.70;70.60
1091;DHT22;534;48.704;9.122;2023-02-04T17:52:31;8.70;70.70
1091;DHT22;534;48.704;9.122;2023-02-04T17:54:58;8.70;70.80
1091;DHT22;534;48.704;9.122;2023-02-04T17:57:25;8.70;70.80
1091;DHT22;534;48.704;9.122;2023-02-04T17:59:52;8.60;71.00
1091;DHT22;534;48.704;9.122;2023-02-04T18:02:23;8.50;71.30
1091;DHT22;534;48.704;9.122;2023-02-04T18:04:53;8.50;71.40
1091;DHT22;534;48.704;9.122;2023-02-04T18:07:21;8.50;71.50
1091;DHT22;534;48.704;9.122;2023-02-04T18:09:48;8.50;71.50
1091;DHT22;534;48.704;9.122;2023-02-04T18:12:16;8.50;71.40
1091;DHT22;534;48.704;9.122;2023-02-04T18:14:43;8.50;71.30
1091;DHT22;534;48.704;9.122;2023-02-04T18:17:12;8.50;71.40
1091;DHT22;534;48.704;9.122;2023-02-04T18:19:41;8.50;71.40
1091;DHT22;534;48.704;9.122;2023-02-04T18:22:12;8.40;71.60
1091;DHT22;534;48.704;9.122;2023-02-04T18:24:41;8.30;71.70
1091;DHT22;534;48.704;9.122;2023-02-04T18:27:16;8.30;72.10
1091;DHT22;534;48.704;9.122;2023-02-04T18:29:45;8.30;72.30
1091;DHT22;534;48.704;9.122;2023-02-04T18:32:15;8.20;72.70
1091;DHT22;534;48.704;9.122;2023-02-04T18:34:46;8.10;72.70
1091;DHT22;534;48.704;9.122;2023-02-04T18:37:29;8.10;72.50
1091;DHT22;534;48.704;9.122;2023-02-04T18:40:20;8.00;72.80
1091;DHT22;534;48.704;9.122;2023-02-04T18:42:47;8.00;72.80
1091;DHT22;534;48.704;9.122;2023-02-04T18:45:23;7.90;73.00
1091;DHT22;534;48.704;9.122;2023-02-04T18:47:52;7.90;73.30
1091;DHT22;534;48.704;9.122;2023-02-04T18:50:23;7.80;73.20
1091;DHT22;534;48.704;9.122;2023-02-04T18:52:54;7.70;73.50
1091;DHT22;534;48.704;9.122;2023-02-04T18:55:24;7.70;73.30
1091;DHT22;534;48.704;9.122;2023-02-04T18:57:54;7.60;73.50
1091;DHT22;534;48.704;9.122;2023-02-04T19:00:28;7.50;73.80
1091;DHT22;534;48.704;9.122;2023-02-04T19:02:59;7.50;73.60
1091;DHT22;534;48.704;9.122;2023-02-04T19:05:30;7.40;73.70
1091;DHT22;534;48.704;9.122;2023-02-04T19:08:16;7.30;74.10
1091;DHT22;534;48.704;9.122;2023-02-04T19:10:44;7.30;74.30
1091;DHT22;534;48.704;9.122;2023-02-04T19:13:17;7.20;74.60
1091;DHT22;534;48.704;9.122;2023-02-04T19:15:51;7.20;74.50
1091;DHT22;534;48.704;9.122;2023-02-04T19:18:23;7.10;74.40
1091;DHT22;534;48.704;9.122;2023-02-04T19:20:50;7.00;74.60
1091;DHT22;534;48.704;9.122;2023-02-04T19:23:20;7.00;74.90
1091;DHT22;534;48.704;9.122;2023-02-04T19:25:48;6.90;75.30
1091;DHT22;534;48.704;9.122;2023-02-04T19:28:25;6.90;75.30
1091;DHT22;534;48.704;9.122;2023-02-04T19:30:58;6.90;75.60
1091;DHT22;534;48.704;9.122;2023-02-04T19:33:27;6.80;75.80
1091;DHT22;534;48.704;9.122;2023-02-04T19:35:57;6.80;75.80
1091;DHT22;534;48.704;9.122;2023-02-04T19:38:35;6.80;75.70
1091;DHT22;534;48.704;9.122;2023-02-04T19:41:25;6.80;75.60
1091;DHT22;534;48.704;9.122;2023-02-04T19:43:56;6.80;75.80
1091;DHT22;534;48.704;9.122;2023-02-04T19:46:23;6.80;75.90
1091;DHT22;534;48.704;9.122;2023-02-04T19:48:51;6.80;76.00
1091;DHT22;534;48.704;9.122;2023-02-04T19:51:24;6.70;76.20
1091;DHT22;534;48.704;9.122;2023-02-04T19:53:57;6.70;76.40
1091;DHT22;534;48.704;9.122;2023-02-04T19:56:33;6.60;76.60
1091;DHT22;534;48.704;9.122;2023-02-04T19:59:24;6.70;76.80
1091;DHT22;534;48.704;9.122;2023-02-04T20:01:57;6.70;77.10
1091;DHT22;534;48.704;9.122;2023-02-04T20:04:26;6.70;77.20
1091;DHT22;534;48.704;9.122;2023-02-04T20:06:57;6.70;77.20
1091;DHT22;534;48.704;9.122;2023-02-04T20:09:27;6.70;77.30
1091;DHT22;534;48.704;9.122;2023-02-04T20:11:57;6.70;77.40
1091;DHT22;534;48.704;9.122;2023-02-04T20:14:40;6.70;77.40
1091;DHT22;534;48.704;9.122;2023-02-04T20:17:17;6.70;77.50
1091;DHT22;534;48.704;9.122;2023-02-04T20:19:45;6.70;77.70
1091;DHT22;534;48.704;9.122;2023-02-04T20:28:35;6.70;77.30
1091;DHT22;534;48.704;9.122;2023-02-04T20:31:21;6.70;77.00
1091;DHT22;534;48.704;9.122;2023-02-04T20:33:51;6.70;77.00
1091;DHT22;534;48.704;9.122;2023-02-04T20:36:35;6.70;77.20
1091;DHT22;534;48.704;9.122;2023-02-04T20:39:28;6.70;77.00
1091;DHT22;534;48.704;9.122;2023-02-04T20:45:08;6.60;77.00
1091;DHT22;534;48.704;9.122;2023-02-04T20:47:36;6.60;77.00
1091;DHT22;534;48.704;9.122;2023-02-04T20:50:33;6.60;77.00